Time;durP1;ratioP1;P1;durP2;ratioP2;P2;SDS_P1;SDS_P2;PMS_P1;PMS_P2;Temp;Humidity;BMP_temperature;BMP_pressure;BME280_temperature;BME280_humidity;BME280_pressure;Samples;Min_cycle;Max_cycle;Signal;HPM_P1;HPM_P2
2023/08/16 00:03:21;;;;;;;8.00;7.30;;;;;;;19.46;67.23;100048.64;220005;1253;140979;-68
2023/08/16 00:08:26;;;;;;;8.40;7.50;;;;;;;19.55;67.19;100054.05;219904;1253;139369;-69
2023/08/16 00:13:33;;;;;;;14.50;8.80;;;;;;;19.66;67.28;100055.44;218429;1256;209359;-70
2023/08/16 00:18:40;;;;;;;9.40;8.50;;;;;;;19.73;67.30;100049.73;217725;1253;140004;-69
2023/08/16 00:23:44;;;;;;;;;;;;;;;19.77;67.28;100051.64;218519;1253;140124;-69
2023/08/16 00:28:49;;;;;;;17.90;8.10;;;;;;;19.78;67.34;100060.13;218121;1253;126106;-70
2023/08/16 00:33:54;;;;;;;8.40;7.40;;;;;;;19.82;67.44;100061.11;217929;1253;140029;-70
2023/08/16 00:39:00;;;;;;;9.20;8.00;;;;;;;19.83;67.40;100057.10;218025;1253;139868;-69
2023/08/16 00:44:06;;;;;;;9.20;8.10;;;;;;;19.82;67.63;100060.89;218155;1257;141175;-69
2023/08/16 00:49:11;;;;;;;9.40;8.10;;;;;;;19.84;67.87;100058.66;218328;1257;141734;-69
2023/08/16 00:54:17;;;;;;;10.40;8.30;;;;;;;19.84;67.74;100060.82;217994;1253;140802;-68
2023/08/16 00:59:21;;;;;;;8.40;7.70;;;;;;;19.82;67.83;100063.92;218545;1253;140674;-69
2023/08/16 01:04:27;;;;;;;8.90;8.00;;;;;;;19.78;67.94;100068.02;218044;1253;140630;-68
2023/08/16 01:09:33;;;;;;;7.90;7.30;;;;;;;19.71;68.14;100066.46;219055;1254;139868;-68
2023/08/16 01:14:47;;;;;;;;;;;;;;;19.62;68.22;100069.20;218848;1253;140854;-68
2023/08/16 01:19:56;;;;;;;9.30;8.40;;;;;;;19.53;68.48;100063.58;220618;1253;127856;-69
2023/08/16 01:25:17;;;;;;;10.20;9.10;;;;;;;19.47;68.59;100065.40;218171;1257;139726;-68
2023/08/16 01:30:23;;;;;;;10.40;8.30;;;;;;;19.38;68.73;100064.44;219802;1253;140346;-68
2023/08/16 01:35:27;;;;;;;9.90;8.20;;;;;;;19.31;68.82;100054.72;219994;1253;139733;-68
2023/08/16 01:40:45;;;;;;;10.90;8.50;;;;;;;19.26;69.00;100056.67;219455;1253;140547;-67
2023/08/16 01:45:52;;;;;;;9.20;8.30;;;;;;;19.21;69.21;100055.80;220917;1253;140554;-68
2023/08/16 01:50:58;;;;;;;9.70;8.50;;;;;;;19.14;69.46;100047.37;220763;1254;140584;-68
2023/08/16 01:56:04;;;;;;;9.50;8.50;;;;;;;19.08;69.31;100038.77;220481;1254;140022;-69
2023/08/16 02:01:08;;;;;;;11.00;9.20;;;;;;;18.94;69.51;100034.63;220709;1253;140272;-72
2023/08/16 02:06:14;;;;;;;17.10;10.20;;;;;;;18.77;69.71;100031.73;219096;1254;140924;-72
2023/08/16 02:11:20;;;;;;;9.90;8.80;;;;;;;18.66;70.22;100029.32;218197;1253;140621;-72
2023/08/16 02:16:25;;;;;;;10.00;8.90;;;;;;;18.59;70.60;100025.85;218462;1253;142150;-68
2023/08/16 02:21:29;;;;;;;9.90;8.80;;;;;;;18.56;70.76;100029.09;218486;1254;140425;-68
2023/08/16 02:26:33;;;;;;;10.10;9.00;;;;;;;18.55;70.91;100024.23;218888;1253;140810;-67
2023/08/16 02:31:39;;;;;;;10.60;9.00;;;;;;;18.51;70.96;100022.48;218986;1257;141545;-68
2023/08/16 02:36:45;;;;;;;9.50;8.60;;;;;;;18.42;70.84;100026.52;218056;1253;140370;-70
2023/08/16 02:41:51;;;;;;;9.80;8.80;;;;;;;18.28;71.24;100026.89;219185;1253;140660;-70
2023/08/16 02:46:56;;;;;;;9.90;9.00;;;;;;;18.15;71.74;100021.39;218680;1257;139779;-69
2023/08/16 02:52:01;;;;;;;9.80;9.00;;;;;;;18.06;72.05;100018.98;218102;1256;140353;-70
2023/08/16 02:57:07;;;;;;;11.40;9.10;;;;;;;18.06;72.27;100017.96;218037;1257;142381;-70
2023/08/16 03:02:13;;;;;;;11.10;9.10;;;;;;;18.06;72.39;100019.64;217917;1253;140138;-73
2023/08/16 03:07:18;;;;;;;;;;;;;;;18.03;72.47;100030.61;218147;1253;140719;-71
2023/08/16 03:12:23;;;;;;;10.10;9.20;;;;;;;17.97;72.61;100038.21;219175;1253;125827;-70
2023/08/16 03:17:28;;;;;;;9.80;8.80;;;;;;;17.93;72.58;100036.33;218955;1253;139925;-69
2023/08/16 03:22:33;;;;;;;9.50;8.50;;;;;;;17.89;72.65;100037.15;218892;1253;141468;-69
2023/08/16 03:27:38;;;;;;;9.20;8.20;;;;;;;17.81;72.69;100037.50;219574;1253;140163;-69
2023/08/16 03:32:43;;;;;;;15.00;9.10;;;;;;;17.70;73.00;100045.63;219045;1254;139979;-70
2023/08/16 03:37:48;;;;;;;10.00;8.90;;;;;;;17.63;73.36;100046.64;218276;1257;139951;-72
2023/08/16 03:42:52;;;;;;;9.80;8.80;;;;;;;17.65;73.71;100050.77;217944;1257;140666;-73
2023/08/16 03:47:57;;;;;;;16.10;9.90;;;;;;;17.68;73.88;100055.66;218037;1253;141645;-72
2023/08/16 03:53:03;;;;;;;12.30;9.40;;;;;;;17.74;74.09;100051.21;218067;1257;140605;-71
2023/08/16 03:58:08;;;;;;;8.40;7.70;;;;;;;17.80;74.13;100051.35;217988;1253;140527;-69
2023/08/16 04:03:13;;;;;;;10.90;9.80;;;;;;;17.82;74.30;100052.32;220221;1253;140522;-68
2023/08/16 04:08:18;;;;;;;11.10;10.10;;;;;;;17.84;74.37;100062.84;219711;1253;140581;-69
2023/08/16 04:13:23;;;;;;;13.00;9.40;;;;;;;17.95;74.67;100061.41;218107;1259;141069;-69
2023/08/16 06:08:30;;;;;;;12.80;10.60;;;;;;;24.71;68.00;100087.59;212374;1289;246657;-68
2023/08/16 06:13:38;;;;;;;10.30;8.70;;;;;;;24.84;67.56;100092.61;217198;1266;139603;-70
2023/08/16 06:18:44;;;;;;;11.50;9.30;;;;;;;24.91;66.93;100090.09;217082;1266;139688;-67
2023/08/16 06:23:48;;;;;;;10.10;9.20;;;;;;;25.01;66.55;100086.38;216410;1267;139672;-65
2023/08/16 06:28:52;;;;;;;11.10;10.10;;;;;;;25.13;66.23;100084.67;217653;1266;139533;-66
2023/08/16 06:33:54;;;;;;;25.80;11.40;;;;;;;25.32;65.65;100090.75;216791;1266;139733;-66
2023/08/16 06:38:58;;;;;;;10.30;9.20;;;;;;;25.46;65.31;100087.14;217304;1267;139295;-71
2023/08/16 06:44:03;;;;;;;14.20;9.30;;;;;;;25.72;64.50;100092.10;216962;1269;139513;-67
2023/08/16 06:49:07;;;;;;;9.20;8.50;;;;;;;25.99;63.90;100087.36;218378;1266;140675;-67
2023/08/16 06:54:10;;;;;;;10.20;9.30;;;;;;;26.71;63.44;100091.34;218238;1266;140113;-69
2023/08/16 06:59:13;;;;;;;9.10;8.40;;;;;;;27.68;61.94;100091.48;219292;1266;139314;-70
2023/08/16 07:04:19;;;;;;;8.30;7.50;;;;;;;29.33;60.38;100094.77;218423;1269;140833;-69
2023/08/16 07:09:24;;;;;;;17.10;8.20;;;;;;;31.20;57.81;100096.02;219110;1266;138521;-69
2023/08/16 07:14:32;;;;;;;13.60;8.30;;;;;;;32.82;55.56;100100.40;217079;1266;138842;-68
2023/08/16 07:19:36;;;;;;;7.80;7.10;;;;;;;33.75;53.25;100099.73;219422;1257;140003;-69
2023/08/16 07:24:39;;;;;;;7.20;6.60;;;;;;;34.17;51.11;100101.17;219180;1257;140100;-68
2023/08/16 07:29:42;;;;;;;18.80;6.70;;;;;;;34.41;49.85;100098.02;218217;1257;138655;-69
2023/08/16 07:34:49;;;;;;;7.20;6.60;;;;;;;34.49;48.18;100102.02;218330;1257;139099;-70
2023/08/16 07:39:52;;;;;;;10.80;7.00;;;;;;;34.62;47.56;100103.73;217836;1255;139111;-68
2023/08/16 07:44:57;;;;;;;6.40;5.80;;;;;;;34.87;46.85;100110.36;220177;1255;141432;-69
2023/08/16 07:50:01;;;;;;;5.90;5.50;;;;;;;34.99;45.87;100110.96;218768;1259;140594;-69
2023/08/16 07:55:04;;;;;;;4.80;4.50;;;;;;;35.02;45.10;100106.79;219947;1256;138794;-70
2023/08/16 08:00:12;;;;;;;8.20;6.00;;;;;;;34.93;44.27;100106.60;220488;1257;139682;-70
2023/08/16 08:05:15;;;;;;;8.50;6.10;;;;;;;35.01;43.80;100104.80;220472;1257;139690;-73
2023/08/16 08:10:21;;;;;;;6.20;5.60;;;;;;;35.23;43.02;100104.00;219018;1257;139894;-72
2023/08/16 08:15:25;;;;;;;6.60;5.30;;;;;;;35.30;42.31;100105.85;218297;1257;138824;-72
2023/08/16 08:20:29;;;;;;;6.50;4.70;;;;;;;35.29;42.00;100100.08;218879;1259;139061;-70
2023/08/16 08:25:32;;;;;;;5.00;4.70;;;;;;;35.25;41.60;100103.45;217967;1256;138791;-68
2023/08/16 08:30:36;;;;;;;7.90;5.90;;;;;;;35.24;41.38;100099.40;218963;1257;139203;-71
2023/08/16 08:35:38;;;;;;;7.50;5.60;;;;;;;35.33;41.20;100104.44;218204;1259;139955;-72
2023/08/16 08:40:43;;;;;;;6.10;5.70;;;;;;;35.45;40.79;100109.45;217799;1259;139288;-71
2023/08/16 08:45:49;;;;;;;6.20;5.40;;;;;;;35.41;40.33;100102.58;218005;1257;220505;-70
2023/08/16 08:50:54;;;;;;;9.30;5.10;;;;;;;35.28;39.94;100108.45;217556;1256;139185;-71
2023/08/16 08:56:10;;;;;;;5.10;4.70;;;;;;;35.35;39.48;100112.92;217826;1257;138125;-72
2023/08/16 09:01:14;;;;;;;6.30;5.80;;;;;;;35.46;39.13;100114.84;217648;1255;139090;-72
2023/08/16 09:06:18;;;;;;;5.90;5.30;;;;;;;35.49;38.78;100117.85;218868;1256;138922;-71
2023/08/16 09:11:22;;;;;;;;;;;;;;;35.53;38.15;100115.08;217647;1257;139457;-74
2023/08/16 09:16:26;;;;;;;11.30;4.90;;;;;;;35.63;37.78;100113.75;218695;1257;124955;-75
2023/08/16 09:21:30;;;;;;;5.90;5.10;;;;;;;35.65;37.21;100113.60;217957;1257;139975;-72
2023/08/16 09:26:36;;;;;;;;;;;;;;;35.65;37.43;100115.89;218405;1257;138919;-72
2023/08/16 09:31:47;;;;;;;5.30;4.80;;;;;;;35.56;37.62;100115.24;218214;1257;125546;-71
2023/08/16 09:36:51;;;;;;;7.20;5.20;;;;;;;35.72;37.61;100114.55;218792;1259;139873;-72
2023/08/16 09:42:08;;;;;;;6.50;5.40;;;;;;;35.88;37.02;100109.83;218101;1257;138949;-73
2023/08/16 09:47:23;;;;;;;5.30;4.80;;;;;;;35.81;36.72;100112.98;218423;1259;139841;-71
2023/08/16 09:52:42;;;;;;;6.30;4.60;;;;;;;35.71;36.89;100114.72;217578;1256;138997;-72
2023/08/16 09:57:45;;;;;;;;;;;;;;;35.85;36.73;100114.49;217891;1259;139116;-71
2023/08/16 10:02:49;;;;;;;5.90;4.90;;;;;;;35.77;36.29;100109.10;218143;1259;125930;-70
2023/08/16 10:07:59;;;;;;;6.00;4.60;;;;;;;35.71;36.59;100111.63;218969;1256;139523;-71
2023/08/16 10:13:07;;;;;;;4.60;4.20;;;;;;;35.81;36.46;100115.99;218036;1259;139669;-71
2023/08/16 10:18:13;;;;;;;4.90;4.40;;;;;;;35.93;36.21;100113.00;217657;1257;140038;-70
2023/08/16 10:23:19;;;;;;;6.90;5.00;;;;;;;35.97;36.24;100110.30;218064;1257;140582;-71
2023/08/16 10:28:25;;;;;;;5.10;4.80;;;;;;;36.03;36.03;100111.96;218880;1257;139376;-69
2023/08/16 10:33:37;;;;;;;6.10;5.20;;;;;;;36.16;35.96;100111.46;217756;1259;138960;-70
2023/08/16 10:38:47;;;;;;;5.80;5.10;;;;;;;36.36;35.55;100114.00;217586;1257;140232;-70
2023/08/16 10:43:52;;;;;;;10.10;5.20;;;;;;;36.23;35.57;100112.17;218370;1259;138654;-68
2023/08/16 10:48:59;;;;;;;14.50;6.10;;;;;;;36.41;35.43;100110.41;218299;1260;139875;-69
2023/08/16 10:54:05;;;;;;;7.90;4.80;;;;;;;36.35;35.26;100104.26;218517;1256;139944;-70
2023/08/16 10:59:09;;;;;;;6.00;5.50;;;;;;;36.33;35.08;100104.73;218296;1256;139460;-69
2023/08/16 11:04:12;;;;;;;4.40;4.10;;;;;;;36.31;34.63;100104.73;218398;1259;138915;-70
2023/08/16 11:09:15;;;;;;;4.60;4.20;;;;;;;36.41;34.68;100100.17;217927;1259;140071;-69
2023/08/16 11:14:20;;;;;;;;;;;;;;;36.35;34.22;100098.92;218880;1258;139568;-69
2023/08/16 11:23:15;;;;;;;4.90;4.60;;;;;;;36.39;34.70;100100.35;214520;1299;636134;-71
2023/08/16 11:28:19;;;;;;;10.90;5.60;;;;;;;36.45;34.27;100103.65;216631;1267;143018;-71
2023/08/16 11:33:24;;;;;;;6.60;6.00;;;;;;;36.42;33.95;100105.17;217135;1263;247114;-67
2023/08/16 11:38:30;;;;;;;8.10;4.90;;;;;;;36.37;34.04;100102.02;217008;1265;138366;-71
2023/08/16 11:43:36;;;;;;;7.00;5.00;;;;;;;36.39;33.93;100104.48;217333;1263;138836;-70
2023/08/16 11:48:41;;;;;;;5.50;4.90;;;;;;;36.14;33.60;100103.94;218172;1266;138463;-68
2023/08/16 11:53:46;;;;;;;6.10;5.50;;;;;;;36.00;34.20;100097.30;218153;1264;138373;-68
2023/08/16 11:58:49;;;;;;;6.00;5.50;;;;;;;36.10;34.15;100093.79;216909;1265;138200;-68
2023/08/16 12:03:59;;;;;;;6.40;5.70;;;;;;;36.08;34.25;100091.50;218196;1262;139286;-69
2023/08/16 12:09:04;;;;;;;6.60;5.40;;;;;;;36.07;34.19;100081.67;218637;1265;139365;-69
2023/08/16 12:14:08;;;;;;;6.30;5.70;;;;;;;36.11;33.89;100078.16;217492;1262;138284;-70
2023/08/16 12:19:22;;;;;;;6.10;5.50;;;;;;;36.16;33.57;100071.10;217375;1264;139060;-71
2023/08/16 12:24:27;;;;;;;6.00;5.40;;;;;;;36.17;33.42;100067.77;217015;1263;138955;-69
2023/08/16 12:29:32;;;;;;;5.70;5.00;;;;;;;36.27;33.94;100063.25;217520;1262;138943;-68
2023/08/16 12:34:39;;;;;;;5.90;5.20;;;;;;;36.28;33.40;100069.98;216914;1265;139437;-70
2023/08/16 12:39:48;;;;;;;6.80;5.00;;;;;;;36.26;33.19;100062.86;217883;1263;138802;-69
2023/08/16 12:44:53;;;;;;;5.90;5.50;;;;;;;36.34;33.27;100054.69;217318;1262;138519;-69
2023/08/16 12:49:58;;;;;;;5.20;4.90;;;;;;;36.33;33.36;100055.16;218035;1262;138366;-70
2023/08/16 12:55:04;;;;;;;5.80;5.40;;;;;;;36.22;33.25;100052.55;217240;1262;138936;-70
2023/08/16 13:00:13;;;;;;;5.50;5.00;;;;;;;36.00;33.22;100049.09;216990;1263;138788;-69
2023/08/16 13:05:30;;;;;;;5.90;5.30;;;;;;;35.85;33.41;100045.15;217679;1262;138536;-70
2023/08/16 13:10:36;;;;;;;8.80;6.40;;;;;;;35.74;33.92;100048.64;217588;1263;140786;-70
2023/08/16 13:16:00;;;;;;;6.90;6.30;;;;;;;35.44;34.83;100044.11;218177;1260;138977;-70
2023/08/16 13:21:11;;;;;;;11.00;6.20;;;;;;;35.24;34.70;100038.42;217360;1260;139014;-70
2023/08/16 13:26:27;;;;;;;8.30;6.10;;;;;;;35.34;34.85;100033.17;217728;1260;140480;-70
2023/08/16 13:31:35;;;;;;;15.90;6.60;;;;;;;35.48;34.98;100030.80;218344;1259;140209;-71
2023/08/16 13:36:50;;;;;;;7.00;6.30;;;;;;;35.50;34.96;100032.38;217622;1260;139299;-72
2023/08/16 13:42:00;;;;;;;6.70;6.20;;;;;;;35.57;35.09;100031.67;219194;1260;138910;-71
2023/08/16 13:47:10;;;;;;;6.50;5.90;;;;;;;35.66;34.99;100029.14;218296;1259;139422;-71
2023/08/16 13:52:17;;;;;;;6.90;6.20;;;;;;;35.51;34.80;100030.55;218093;1259;138770;-70
2023/08/16 13:57:22;;;;;;;27.80;7.20;;;;;;;35.28;34.87;100028.63;219271;1259;138550;-71
2023/08/16 14:02:28;;;;;;;7.30;6.60;;;;;;;35.04;35.44;100027.56;218545;1260;139523;-70
2023/08/16 14:07:34;;;;;;;6.80;6.20;;;;;;;34.83;36.04;100024.80;217897;1259;139841;-70
2023/08/16 14:12:42;;;;;;;7.10;6.40;;;;;;;34.69;36.37;100024.75;218781;1260;138791;-69
2023/08/16 14:17:49;;;;;;;13.50;6.10;;;;;;;34.73;36.85;100023.73;218519;1260;138786;-67
2023/08/16 14:22:55;;;;;;;6.70;6.10;;;;;;;34.81;36.77;100024.89;218261;1260;139820;-68
2023/08/16 14:28:05;;;;;;;8.00;6.90;;;;;;;34.81;36.42;100022.14;217622;1260;138699;-69
2023/08/16 14:33:12;;;;;;;6.60;6.00;;;;;;;34.94;36.44;100018.11;219135;1260;139302;-69
2023/08/16 14:38:17;;;;;;;13.60;6.50;;;;;;;34.91;36.46;100015.65;218185;1257;138649;-68
2023/08/16 14:43:23;;;;;;;7.20;6.60;;;;;;;34.83;36.57;100013.83;217988;1257;139288;-71
2023/08/16 14:48:29;;;;;;;6.60;5.90;;;;;;;34.83;36.25;100012.41;217957;1257;139857;-70
2023/08/16 14:53:34;;;;;;;16.80;6.90;;;;;;;34.81;37.13;100009.63;218143;1258;139925;-69
2023/08/16 14:58:40;;;;;;;9.40;6.70;;;;;;;34.58;37.15;100008.17;218810;1257;139389;-69
2023/08/16 15:03:48;;;;;;;7.40;6.70;;;;;;;34.38;37.14;100007.54;217751;1257;139034;-69
2023/08/16 15:09:05;;;;;;;7.00;6.50;;;;;;;34.37;36.96;100004.29;217893;1258;138938;-68
2023/08/16 15:14:13;;;;;;;6.60;6.10;;;;;;;34.37;36.70;99998.84;217702;1257;139158;-66
2023/08/16 15:19:27;;;;;;;7.10;6.40;;;;;;;34.18;37.36;99991.37;218926;1257;138472;-69
2023/08/16 15:24:33;;;;;;;29.90;8.70;;;;;;;33.99;37.82;99989.21;218611;1256;139365;-70
2023/08/16 15:29:39;;;;;;;7.30;6.10;;;;;;;33.84;38.66;99988.09;219200;1257;138529;-69
2023/08/16 15:34:46;;;;;;;7.60;7.00;;;;;;;33.68;39.19;99984.95;218337;1256;138982;-69
2023/08/16 15:39:52;;;;;;;8.80;7.30;;;;;;;33.55;40.35;99980.20;219610;1257;139327;-69
2023/08/16 15:44:58;;;;;;;7.60;7.00;;;;;;;33.49;40.87;99974.79;220075;1256;139098;-69
2023/08/16 15:50:05;;;;;;;8.50;7.80;;;;;;;33.47;41.64;99972.64;220272;1256;139131;-69
2023/08/16 15:55:13;;;;;;;9.20;7.90;;;;;;;33.35;41.75;99967.02;219535;1258;140040;-68
2023/08/16 16:00:21;;;;;;;9.70;7.30;;;;;;;33.27;40.42;99962.68;220216;1256;139447;-70
2023/08/16 16:05:27;;;;;;;10.60;7.60;;;;;;;33.20;40.10;99959.60;219460;1257;138704;-69
2023/08/16 16:10:33;;;;;;;8.30;7.60;;;;;;;33.17;40.75;99958.94;220143;1256;139683;-69
2023/08/16 16:15:44;;;;;;;9.20;7.50;;;;;;;33.09;42.09;99961.08;219094;1256;140095;-69
2023/08/16 16:20:50;;;;;;;8.20;7.60;;;;;;;32.99;42.25;99966.27;219385;1256;140703;-69
2023/08/16 16:25:57;;;;;;;9.60;8.40;;;;;;;32.78;42.90;99977.73;217964;1257;138539;-68
2023/08/16 16:31:08;;;;;;;26.50;10.30;;;;;;;32.56;43.26;99986.84;218009;1256;139000;-69
2023/08/16 16:36:16;;;;;;;15.10;8.70;;;;;;;32.42;44.48;99990.08;218592;1257;139642;-68
2023/08/16 16:41:23;;;;;;;51.80;14.90;;;;;;;32.26;45.01;99989.78;218115;1256;139533;-68
2023/08/16 16:46:30;;;;;;;10.10;9.00;;;;;;;32.08;45.35;99988.58;218100;1257;139461;-69
2023/08/16 16:51:37;;;;;;;15.80;11.40;;;;;;;31.87;45.76;99991.58;217875;1257;138722;-68
2023/08/16 16:56:42;;;;;;;14.50;10.00;;;;;;;31.64;45.47;99982.40;218006;1257;139260;-68
2023/08/16 17:01:49;;;;;;;11.60;9.00;;;;;;;31.47;46.48;99986.21;217905;1257;139314;-68
2023/08/16 17:06:58;;;;;;;10.50;9.50;;;;;;;31.30;47.17;99997.56;218388;1259;139032;-68
2023/08/16 17:12:06;;;;;;;9.30;8.30;;;;;;;31.11;47.15;99995.27;218463;1257;139551;-68
2023/08/16 17:17:13;;;;;;;8.80;8.10;;;;;;;30.90;47.49;99991.88;218551;1256;138401;-68
2023/08/16 17:22:25;;;;;;;9.50;8.10;;;;;;;30.66;48.69;99987.17;218559;1257;138949;-69
2023/08/16 17:27:35;;;;;;;11.80;8.70;;;;;;;30.42;48.99;99989.73;217950;1257;139246;-69
2023/08/16 17:32:45;;;;;;;9.60;8.70;;;;;;;30.21;49.60;99995.64;219899;1257;139000;-67
2023/08/16 17:37:54;;;;;;;10.70;8.50;;;;;;;29.93;49.15;100004.52;218948;1260;139373;-66
2023/08/16 17:43:01;;;;;;;14.60;8.30;;;;;;;29.64;49.18;100003.58;217793;1261;143204;-66
2023/08/16 17:48:07;;;;;;;10.50;8.30;;;;;;;29.48;48.89;100002.40;220398;1257;139464;-69
2023/08/16 17:53:12;;;;;;;9.30;8.30;;;;;;;29.42;48.87;100011.48;220121;1257;139713;-67
2023/08/16 17:58:21;;;;;;;8.70;7.80;;;;;;;29.33;48.36;100020.19;219995;1257;139917;-67
2023/08/16 18:03:30;;;;;;;11.20;8.60;;;;;;;29.24;47.41;100024.76;218374;1260;138915;-68
2023/08/16 18:08:44;;;;;;;8.90;8.00;;;;;;;29.18;47.13;100034.16;218555;1257;140006;-71
2023/08/16 18:13:57;;;;;;;7.70;6.90;;;;;;;29.09;47.24;100048.89;218575;1257;139777;-69
2023/08/16 18:19:08;;;;;;;7.80;7.20;;;;;;;28.87;46.78;100055.59;218642;1257;139456;-70
2023/08/16 18:24:15;;;;;;;9.30;8.50;;;;;;;28.64;47.35;100062.73;217988;1257;138708;-69
2023/08/16 18:29:25;;;;;;;55.40;12.00;;;;;;;28.48;48.16;100066.42;217892;1259;140052;-67
2023/08/16 18:34:34;;;;;;;12.60;9.90;;;;;;;28.30;48.59;100069.02;218304;1256;139081;-68
2023/08/16 18:39:43;;;;;;;10.60;9.20;;;;;;;28.09;48.86;100077.19;218316;1257;139885;-68
2023/08/16 18:44:51;;;;;;;10.30;9.30;;;;;;;27.83;49.08;100084.88;217532;1260;139871;-69
2023/08/16 18:49:58;;;;;;;10.70;9.70;;;;;;;27.69;49.57;100086.00;218257;1257;138977;-69
2023/08/16 18:55:06;;;;;;;9.90;8.70;;;;;;;27.52;50.36;100086.63;219007;1257;140922;-68
2023/08/16 19:00:12;;;;;;;13.50;9.80;;;;;;;27.25;50.44;100092.41;218246;1258;139477;-68
2023/08/16 19:05:20;;;;;;;32.60;10.70;;;;;;;27.08;51.09;100096.92;217877;1257;139734;-67
2023/08/16 19:10:28;;;;;;;11.80;9.20;;;;;;;26.99;51.47;100093.12;218509;1257;139171;-67
2023/08/16 19:15:35;;;;;;;12.50;10.30;;;;;;;26.86;51.93;100088.23;218216;1258;141039;-68
2023/08/16 19:20:42;;;;;;;12.00;10.40;;;;;;;26.68;52.63;100088.89;219423;1257;139963;-66
2023/08/16 19:25:53;;;;;;;11.20;10.30;;;;;;;26.39;52.79;100085.00;217797;1260;139262;-68
2023/08/16 19:30:59;;;;;;;17.70;10.30;;;;;;;26.22;53.58;100080.41;218198;1257;139203;-68
2023/08/16 19:36:05;;;;;;;11.90;10.70;;;;;;;26.05;53.81;100084.38;218504;1260;140084;-68
2023/08/16 19:41:12;;;;;;;14.50;10.20;;;;;;;25.91;54.19;100078.98;218860;1257;139600;-67
2023/08/16 19:46:25;;;;;;;20.10;11.70;;;;;;;25.79;54.42;100080.13;219126;1257;139473;-69
2023/08/16 19:51:39;;;;;;;12.30;11.30;;;;;;;25.72;54.72;100073.31;219268;1256;141005;-68
2023/08/16 19:56:44;;;;;;;13.90;10.90;;;;;;;25.63;55.49;100073.19;218763;1256;139413;-68
2023/08/16 20:01:48;;;;;;;15.40;11.00;;;;;;;25.53;55.86;100073.13;218948;1257;139613;-68
2023/08/16 20:06:52;;;;;;;12.10;11.00;;;;;;;25.45;55.89;100073.63;218876;1257;141268;-66
2023/08/16 20:12:00;;;;;;;12.30;11.10;;;;;;;25.39;56.03;100072.89;218554;1257;140421;-64
2023/08/16 20:17:05;;;;;;;12.80;11.70;;;;;;;25.30;56.24;100075.09;218698;1257;140009;-64
2023/08/16 20:22:10;;;;;;;13.60;12.00;;;;;;;25.20;56.55;100076.61;218331;1259;140174;-65
2023/08/16 20:27:14;;;;;;;29.60;11.80;;;;;;;25.10;56.96;100075.95;219542;1259;140142;-67
2023/08/16 20:32:20;;;;;;;17.70;12.30;;;;;;;25.02;57.60;100078.80;217818;1257;139325;-66
2023/08/16 20:37:27;;;;;;;20.20;12.20;;;;;;;24.94;57.70;100082.30;217949;1258;139272;-66
2023/08/16 20:42:35;;;;;;;31.30;13.00;;;;;;;24.86;57.82;100085.27;218013;1257;139061;-66
2023/08/16 20:47:44;;;;;;;34.10;12.60;;;;;;;24.76;58.49;100083.41;217441;1257;139137;-68
2023/08/16 20:52:49;;;;;;;19.00;12.30;;;;;;;24.63;58.31;100080.88;218303;1257;140121;-67
2023/08/16 20:57:55;;;;;;;20.20;13.90;;;;;;;24.44;58.40;100083.94;218477;1256;143290;-65
2023/08/16 21:03:02;;;;;;;19.50;12.40;;;;;;;24.31;58.82;100078.79;217827;1257;140254;-67
2023/08/16 21:08:09;;;;;;;22.50;11.60;;;;;;;24.19;59.36;100075.94;217877;1262;140594;-66
2023/08/16 21:13:14;;;;;;;12.40;11.30;;;;;;;24.07;59.50;100080.17;218464;1259;140308;-66
2023/08/16 21:18:22;;;;;;;14.10;11.80;;;;;;;23.94;59.80;100078.45;219122;1260;139959;-66
2023/08/16 21:23:26;;;;;;;14.00;12.30;;;;;;;23.76;60.06;100076.41;219656;1256;140529;-68
2023/08/16 21:28:29;;;;;;;14.30;12.10;;;;;;;23.64;60.45;100075.58;219398;1259;140874;-66
2023/08/16 21:33:34;;;;;;;28.00;12.40;;;;;;;23.61;60.89;100073.70;218989;1257;140790;-65
2023/08/16 21:38:38;;;;;;;15.20;12.60;;;;;;;23.58;61.40;100075.90;218695;1261;140578;-66
2023/08/16 21:43:41;;;;;;;18.10;12.90;;;;;;;23.57;62.07;100069.07;220131;1256;141178;-66
2023/08/16 21:48:45;;;;;;;21.90;13.10;;;;;;;23.58;62.44;100067.13;220374;1256;141586;-66
2023/08/16 21:53:49;;;;;;;14.90;11.50;;;;;;;23.59;62.89;100066.91;218950;1260;154011;-68
2023/08/16 21:58:53;;;;;;;13.10;11.90;;;;;;;23.54;62.98;100071.88;218247;1258;142734;-65
2023/08/16 22:03:57;;;;;;;24.30;12.60;;;;;;;23.52;63.33;100072.09;218558;1256;141073;-67
2023/08/16 22:09:01;;;;;;;36.60;14.80;;;;;;;23.51;63.45;100063.18;218140;1257;140540;-65
2023/08/16 22:14:04;;;;;;;21.20;11.80;;;;;;;23.50;64.02;100066.52;217940;1260;140034;-62
2023/08/16 22:19:09;;;;;;;15.50;11.70;;;;;;;23.49;64.68;100069.38;218505;1257;140432;-65
2023/08/16 22:24:13;;;;;;;14.90;13.60;;;;;;;23.47;65.11;100068.56;218752;1259;140420;-66
2023/08/16 22:29:17;;;;;;;15.00;13.70;;;;;;;23.45;65.36;100073.93;218263;1256;140256;-68
2023/08/16 22:34:21;;;;;;;14.20;12.90;;;;;;;23.39;65.57;100077.83;218186;1260;141188;-65
2023/08/16 22:39:24;;;;;;;14.60;13.20;;;;;;;23.22;65.51;100076.54;218107;1259;140949;-65
2023/08/16 22:44:28;;;;;;;13.80;12.70;;;;;;;23.14;65.64;100073.52;217632;1258;140329;-64
2023/08/16 22:49:32;;;;;;;13.60;12.30;;;;;;;23.07;65.78;100080.21;218564;1256;139932;-65
2023/08/16 22:54:36;;;;;;;15.90;14.40;;;;;;;22.97;65.97;100079.59;217902;1261;140048;-66
2023/08/16 22:59:40;;;;;;;14.00;12.60;;;;;;;22.94;66.35;100082.10;217966;1262;140572;-67
2023/08/16 23:04:43;;;;;;;15.80;14.40;;;;;;;22.92;66.80;100080.96;218435;1260;140276;-67
2023/08/16 23:09:47;;;;;;;14.80;12.50;;;;;;;22.89;66.91;100078.01;218393;1257;140132;-65
2023/08/16 23:14:50;;;;;;;14.50;13.20;;;;;;;22.83;67.07;100076.90;218109;1260;140583;-67
2023/08/16 23:19:54;;;;;;;20.00;12.60;;;;;;;22.85;67.24;100090.32;218096;1260;140178;-64
2023/08/16 23:24:58;;;;;;;12.30;10.90;;;;;;;22.91;67.52;100097.41;218031;1260;140760;-66
2023/08/16 23:30:03;;;;;;;9.40;8.10;;;;;;;22.95;67.62;100098.56;219447;1257;220762;-65
2023/08/16 23:35:08;;;;;;;10.00;7.80;;;;;;;22.97;67.90;100101.49;218884;1257;1030808;-65
2023/08/16 23:40:13;;;;;;;7.60;6.70;;;;;;;23.00;68.02;100105.23;218836;1257;140381;-65
2023/08/16 23:45:17;;;;;;;9.00;7.10;;;;;;;23.01;68.10;100101.68;218567;1260;140848;-67
2023/08/16 23:50:22;;;;;;;20.70;6.70;;;;;;;23.01;68.33;100108.09;218598;1257;142128;-67
2023/08/16 23:55:29;;;;;;;13.90;6.40;;;;;;;23.01;68.57;100103.04;218067;1257;139987;-66
